Time;durP1;ratioP1;P1;durP2;ratioP2;P2;SDS_P1;SDS_P2;PMS_P1;PMS_P2;Temp;Humidity;BMP_temperature;BMP_pressure;BME280_temperature;BME280_humidity;BME280_pressure;Samples;Min_cycle;Max_cycle;Signal;HPM_P1;HPM_P2
2023/08/08 00:01:07;;;;;;;;;;;;;;;11.84;100.00;96680.72;5106039;28;20165;-72
2023/08/08 00:03:34;;;;;;;;;;;;;;;11.83;100.00;96679.13;5105992;28;20225;-71
2023/08/08 00:06:00;;;;;;;;;;;;;;;11.83;100.00;96673.06;5105964;28;19943;-67
2023/08/08 00:08:26;;;;;;;;;;;;;;;11.83;100.00;96673.88;5106469;28;19942;-69
2023/08/08 00:10:52;;;;;;;;;;;;;;;11.84;100.00;96664.16;5106323;28;19950;-68
2023/08/08 00:13:17;;;;;;;;;;;;;;;11.83;100.00;96663.34;5105811;28;19937;-68
2023/08/08 00:15:43;;;;;;;;;;;;;;;11.82;100.00;96672.25;5106300;28;19944;-69
2023/08/08 00:18:09;;;;;;;;;;;;;;;11.81;100.00;96668.03;5105568;28;20134;-69
2023/08/08 00:20:35;;;;;;;;;;;;;;;11.83;100.00;96663.34;5105623;28;19988;-69
2023/08/08 00:23:01;;;;;;;;;;;;;;;11.86;100.00;96675.25;5105683;28;20023;-68
2023/08/08 00:25:27;;;;;;;;;;;;;;;11.85;100.00;96671.81;5106444;28;20208;-70
2023/08/08 00:27:53;;;;;;;;;;;;;;;11.82;100.00;96669.63;5105520;28;19969;-69
2023/08/08 00:30:18;;;;;;;;;;;;;;;11.83;100.00;96678.31;5105443;28;19942;-69
2023/08/08 00:32:44;;;;;;;;;;;;;;;11.83;100.00;96680.94;5105851;28;19936;-70
2023/08/08 00:35:10;;;;;;;;;;;;;;;11.84;100.00;96682.53;5105687;28;19940;-70
2023/08/08 00:37:36;;;;;;;;;;;;;;;11.83;100.00;96676.50;5105351;28;19947;-70
2023/08/08 00:40:02;;;;;;;;;;;;;;;11.83;100.00;96675.69;5105313;28;20008;-69
2023/08/08 00:42:28;;;;;;;;;;;;;;;11.83;100.00;96678.31;5105296;28;20006;-67
2023/08/08 00:44:54;;;;;;;;;;;;;;;11.84;100.00;96670.19;5105249;28;19948;-68
2023/08/08 00:47:19;;;;;;;;;;;;;;;11.85;100.00;96669.19;5104077;28;19976;-68
2023/08/08 00:49:48;;;;;;;;;;;;;;;11.88;100.00;96674.03;5105145;28;19941;-69
2023/08/08 00:52:14;;;;;;;;;;;;;;;11.89;100.00;96680.09;5104977;28;19960;-68
2023/08/08 00:54:40;;;;;;;;;;;;;;;11.90;100.00;96671.19;5105533;28;19947;-68
2023/08/08 00:57:06;;;;;;;;;;;;;;;11.89;100.00;96675.66;5104986;28;19959;-69
2023/08/08 00:59:32;;;;;;;;;;;;;;;11.86;100.00;96659.47;5105770;28;20106;-69
2023/08/08 01:01:58;;;;;;;;;;;;;;;11.85;100.00;96661.31;5104954;28;19941;-79
2023/08/08 01:04:25;;;;;;;;;;;;;;;11.86;100.00;96664.72;5105455;28;19981;-69
2023/08/08 01:06:57;;;;;;;;;;;;;;;11.85;100.00;96658.69;5104818;28;19943;-69
2023/08/08 01:09:27;;;;;;;;;;;;;;;11.86;100.00;96652.38;5105042;28;19941;-68
2023/08/08 01:11:53;;;;;;;;;;;;;;;11.85;100.00;96652.63;5105475;28;19956;-69
2023/08/08 01:14:21;;;;;;;;;;;;;;;11.84;100.00;96654.44;5105207;28;20117;-68
2023/08/08 01:16:46;;;;;;;;;;;;;;;11.85;100.00;96653.44;5105229;28;19943;-69
2023/08/08 01:19:26;;;;;;;;;;;;;;;11.85;100.00;96650.78;5104496;28;20309;-69
2023/08/08 01:21:53;;;;;;;;;;;;;;;11.85;100.00;96644.75;5105440;28;20210;-74
2023/08/08 01:24:23;;;;;;;;;;;;;;;11.85;100.00;96648.16;5104590;28;19945;-74
2023/08/08 01:26:49;;;;;;;;;;;;;;;11.82;100.00;96651.22;5104196;28;19950;-75
2023/08/08 01:29:15;;;;;;;;;;;;;;;11.79;100.00;96638.53;5104494;28;20225;-75
2023/08/08 01:31:41;;;;;;;;;;;;;;;11.77;100.00;96644.00;5104922;28;19963;-75
2023/08/08 01:34:07;;;;;;;;;;;;;;;11.75;100.00;96653.94;5104407;28;19946;-74
2023/08/08 01:36:42;;;;;;;;;;;;;;;11.70;100.00;96639.88;5103255;28;19940;-74
2023/08/08 01:39:12;;;;;;;;;;;;;;;11.65;100.00;96639.72;5104969;28;19937;-68
2023/08/08 01:41:39;;;;;;;;;;;;;;;11.62;100.00;96638.34;5105151;28;20104;-69
2023/08/08 01:44:06;;;;;;;;;;;;;;;11.63;100.00;96633.88;5103868;28;19938;-69
2023/08/08 01:46:33;;;;;;;;;;;;;;;11.63;100.00;96639.91;5103150;28;19936;-68
2023/08/08 01:48:59;;;;;;;;;;;;;;;11.64;100.00;96632.88;5104267;28;19944;-69
2023/08/08 01:51:25;;;;;;;;;;;;;;;11.62;100.00;96630.44;5105030;28;19968;-69
2023/08/08 01:53:52;;;;;;;;;;;;;;;11.61;100.00;96636.72;5104203;28;20218;-68
2023/08/08 01:56:17;;;;;;;;;;;;;;;11.60;100.00;96639.59;5104183;28;19952;-68
2023/08/08 01:58:43;;;;;;;;;;;;;;;11.56;100.00;96628.69;5104242;28;19934;-83
2023/08/08 02:01:09;;;;;;;;;;;;;;;11.53;100.00;96629.16;5104235;28;20234;-82
2023/08/08 02:03:35;;;;;;;;;;;;;;;11.51;100.00;96624.09;5104142;28;19936;-83
2023/08/08 02:06:01;;;;;;;;;;;;;;;11.50;100.00;96634.81;5104193;28;19942;-82
2023/08/08 02:08:27;;;;;;;;;;;;;;;11.50;100.00;96642.72;5103115;28;20242;-84
2023/08/08 02:10:52;;;;;;;;;;;;;;;11.49;100.00;96641.91;5104580;28;19949;-79
2023/08/08 02:13:18;;;;;;;;;;;;;;;11.49;100.00;96643.75;5104169;28;19943;-78
2023/08/08 02:15:44;;;;;;;;;;;;;;;11.50;100.00;96637.44;5104888;28;19945;-66
2023/08/08 02:18:11;;;;;;;;;;;;;;;11.49;100.00;96631.41;5103887;28;19984;-70
2023/08/08 02:20:37;;;;;;;;;;;;;;;11.50;100.00;96640.06;5104003;28;19940;-69
2023/08/08 02:23:03;;;;;;;;;;;;;;;11.50;100.00;96629.56;5104497;28;20236;-69
2023/08/08 02:25:30;;;;;;;;;;;;;;;11.51;100.00;96625.94;5104019;28;19939;-70
2023/08/08 02:27:56;;;;;;;;;;;;;;;11.52;100.00;96630.16;5103889;28;19938;-68
2023/08/08 02:30:22;;;;;;;;;;;;;;;11.50;100.00;96625.13;5103930;28;19946;-69
2023/08/08 02:32:48;;;;;;;;;;;;;;;11.51;100.00;96626.72;5104344;28;19960;-72
2023/08/08 02:35:14;;;;;;;;;;;;;;;11.48;100.00;96621.91;5103863;28;19942;-80
2023/08/08 02:37:40;;;;;;;;;;;;;;;11.48;100.00;96632.41;5103797;28;19935;-80
2023/08/08 02:40:06;;;;;;;;;;;;;;;11.48;100.00;96623.75;5104698;28;19938;-79
2023/08/08 02:42:32;;;;;;;;;;;;;;;11.49;100.00;96625.34;5103849;28;20133;-80
2023/08/08 02:44:58;;;;;;;;;;;;;;;11.49;100.00;96630.59;5104611;28;19946;-78
2023/08/08 02:47:24;;;;;;;;;;;;;;;11.48;100.00;96619.28;5104314;28;19934;-83
2023/08/08 02:49:50;;;;;;;;;;;;;;;11.48;100.00;96624.53;5103755;28;20137;-83
2023/08/08 02:52:16;;;;;;;;;;;;;;;11.49;100.00;96620.09;5103695;28;19955;-67
2023/08/08 02:54:42;;;;;;;;;;;;;;;11.47;100.00;96620.31;5104478;28;20125;-72
2023/08/08 02:57:10;;;;;;;;;;;;;;;11.48;100.00;96626.38;5106193;28;19961;-72
2023/08/08 02:59:36;;;;;;;;;;;;;;;11.46;100.00;96623.94;5107261;28;19949;-72
2023/08/08 03:02:03;;;;;;;;;;;;;;;11.47;100.00;96619.53;5106940;28;19946;-71
2023/08/08 03:04:29;;;;;;;;;;;;;;;11.47;100.00;96619.53;5107166;28;19937;-71
2023/08/08 03:06:55;;;;;;;;;;;;;;;11.48;100.00;96624.53;5106815;28;19952;-70
2023/08/08 03:09:21;;;;;;;;;;;;;;;11.49;100.00;96615.66;5107075;28;19936;-69
2023/08/08 03:11:47;;;;;;;;;;;;;;;11.50;100.00;96619.88;5106933;28;19953;-69
2023/08/08 03:14:13;;;;;;;;;;;;;;;11.50;100.00;96619.88;5107571;28;19940;-68
2023/08/08 03:16:39;;;;;;;;;;;;;;;11.51;100.00;96621.47;5107745;28;19935;-69
2023/08/08 03:19:05;;;;;;;;;;;;;;;11.50;100.00;96613.81;5105662;28;19970;-67
2023/08/08 03:21:31;;;;;;;;;;;;;;;11.51;100.00;96618.06;5106829;28;19941;-68
2023/08/08 03:23:57;;;;;;;;;;;;;;;11.52;100.00;96615.19;5106162;28;19952;-68
2023/08/08 03:26:23;;;;;;;;;;;;;;;11.52;100.00;96607.31;5106736;28;19934;-68
2023/08/08 03:28:50;;;;;;;;;;;;;;;11.52;100.00;96612.56;5106699;28;19945;-69
2023/08/08 03:31:17;;;;;;;;;;;;;;;11.53;100.00;96616.81;5107121;28;20221;-68
2023/08/08 03:33:43;;;;;;;;;;;;;;;11.53;100.00;96616.81;5106860;28;20225;-68
2023/08/08 03:36:09;;;;;;;;;;;;;;;11.52;100.00;96612.56;5106576;28;19947;-69
2023/08/08 03:38:37;;;;;;;;;;;;;;;11.53;100.00;96614.19;5106466;28;19932;-70
2023/08/08 03:41:03;;;;;;;;;;;;;;;11.53;100.00;96603.69;5107275;28;19939;-68
2023/08/08 03:43:29;;;;;;;;;;;;;;;11.55;100.00;96611.34;5106435;28;19937;-69
2023/08/08 03:45:55;;;;;;;;;;;;;;;11.54;100.00;96612.34;5106356;28;19972;-80
2023/08/08 03:48:21;;;;;;;;;;;;;;;11.53;100.00;96608.13;5106380;28;19982;-75
2023/08/08 03:50:47;;;;;;;;;;;;;;;11.55;100.00;96611.34;5105127;28;19948;-69
2023/08/08 03:53:13;;;;;;;;;;;;;;;11.54;100.00;96615.78;5106171;28;19953;-69
2023/08/08 03:55:39;;;;;;;;;;;;;;;11.54;100.00;96607.91;5106131;28;19938;-69
2023/08/08 03:58:05;;;;;;;;;;;;;;;11.54;100.00;96612.34;5106731;28;19996;-69
2023/08/08 04:00:31;;;;;;;;;;;;;;;11.54;100.00;96622.88;5106646;28;19940;-69
2023/08/08 04:02:57;;;;;;;;;;;;;;;11.51;100.00;96616.22;5105994;28;19942;-68
2023/08/08 04:05:23;;;;;;;;;;;;;;;11.48;100.00;96616.66;5105988;28;20011;-68
2023/08/08 04:07:49;;;;;;;;;;;;;;;11.48;100.00;96621.91;5104359;28;19945;-82
2023/08/08 04:10:15;;;;;;;;;;;;;;;11.49;100.00;96627.97;5106006;28;19938;-82
2023/08/08 04:12:41;;;;;;;;;;;;;;;11.46;100.00;96618.69;5105795;28;19952;-79
2023/08/08 04:15:07;;;;;;;;;;;;;;;11.45;100.00;96630.22;5105854;28;19944;-78
2023/08/08 04:17:33;;;;;;;;;;;;;;;11.43;100.00;96621.78;5105674;28;19933;-77
2023/08/08 04:19:59;;;;;;;;;;;;;;;11.41;100.00;96629.06;5106006;28;19950;-79
2023/08/08 04:22:25;;;;;;;;;;;;;;;11.37;100.00;96618.19;5105725;28;20109;-70
2023/08/08 04:24:51;;;;;;;;;;;;;;;11.36;100.00;96628.94;5105663;28;20138;-69
2023/08/08 04:27:16;;;;;;;;;;;;;;;11.33;100.00;96632.78;5105627;28;19940;-68
2023/08/08 04:29:42;;;;;;;;;;;;;;;11.32;100.00;96625.94;5106330;28;19938;-68
2023/08/08 04:32:08;;;;;;;;;;;;;;;11.32;100.00;96619.88;5105712;28;19952;-70
2023/08/08 04:34:34;;;;;;;;;;;;;;;11.31;100.00;96624.31;5105452;28;19939;-69
2023/08/08 04:37:00;;;;;;;;;;;;;;;11.32;100.00;96617.25;5105428;28;19945;-69
2023/08/08 04:39:26;;;;;;;;;;;;;;;11.33;100.00;96621.47;5105380;28;19948;-68
2023/08/08 04:41:51;;;;;;;;;;;;;;;11.34;100.00;96618.63;5105294;28;20268;-68
2023/08/08 04:44:17;;;;;;;;;;;;;;;11.37;100.00;96623.44;5105350;28;19936;-71
2023/08/08 04:46:43;;;;;;;;;;;;;;;11.42;100.00;96627.22;5105207;28;19944;-72
2023/08/08 04:49:09;;;;;;;;;;;;;;;11.45;100.00;96632.84;5105793;28;19938;-72
2023/08/08 04:51:35;;;;;;;;;;;;;;;11.50;100.00;96627.75;5105109;28;19960;-72
2023/08/08 04:54:01;;;;;;;;;;;;;;;11.59;100.00;96630.91;5105895;28;19947;-71
2023/08/08 04:56:28;;;;;;;;;;;;;;;11.67;100.00;96630.59;5105061;28;20243;-71
2023/08/08 04:58:54;;;;;;;;;;;;;;;11.75;100.00;96626.88;5105041;28;19939;-71
2023/08/08 05:01:20;;;;;;;;;;;;;;;11.81;100.00;96627.81;5105035;28;19936;-68
2023/08/08 05:03:46;;;;;;;;;;;;;;;11.88;100.00;96629.34;5105761;28;19942;-79
2023/08/08 05:06:12;;;;;;;;;;;;;;;11.95;100.00;96635.34;5105210;28;19942;-82
2023/08/08 05:08:37;;;;;;;;;;;;;;;12.04;100.00;96643.72;5104818;28;19940;-79
2023/08/08 05:11:03;;;;;;;;;;;;;;;12.10;100.00;96644.66;5105743;28;20246;-84
2023/08/08 05:13:29;;;;;;;;;;;;;;;12.17;100.00;96637.47;5104736;28;19954;-79
2023/08/08 05:15:55;;;;;;;;;;;;;;;12.21;100.00;96643.09;5103598;28;19948;-80
2023/08/08 05:18:21;;;;;;;;;;;;;;;12.21;100.00;96638.63;5103920;28;19974;-67
2023/08/08 05:20:47;;;;;;;;;;;;;;;12.17;100.00;96634.84;5104924;28;19950;-69
2023/08/08 05:23:12;;;;;;;;;;;;;;;12.15;100.00;96634.28;5104648;28;20249;-69
2023/08/08 05:25:38;;;;;;;;;;;;;;;12.13;100.00;96633.69;5105187;28;19937;-70
2023/08/08 05:28:04;;;;;;;;;;;;;;;12.13;100.00;96629.22;5104544;28;20219;-69
2023/08/08 05:30:30;;;;;;;;;;;;;;;12.19;100.00;96627.53;5104536;28;19977;-69
2023/08/08 05:32:56;;;;;;;;;;;;;;;12.31;100.00;96606.56;5104362;28;19956;-69
2023/08/08 05:35:22;;;;;;;;;;;;;;;12.45;100.00;96621.13;5104472;28;19940;-69
2023/08/08 05:37:48;;;;;;;;;;;;;;;12.63;100.00;96608.91;5105234;28;19937;-71
2023/08/08 05:40:14;;;;;;;;;;;;;;;12.79;100.00;96610.88;5105039;28;19935;-67
2023/08/08 05:42:40;;;;;;;;;;;;;;;12.93;100.00;96606.97;5104423;28;19941;-70
2023/08/08 05:45:06;;;;;;;;;;;;;;;13.18;100.00;96611.22;5104396;28;20134;-69
2023/08/08 05:47:32;;;;;;;;;;;;;;;13.42;100.00;96598.88;5104362;28;19956;-69
2023/08/08 05:49:58;;;;;;;;;;;;;;;13.65;100.00;96592.75;5104357;28;19945;-69
2023/08/08 05:52:23;;;;;;;;;;;;;;;13.90;99.17;96588.97;5104285;28;19956;-69
2023/08/08 05:54:49;;;;;;;;;;;;;;;14.20;98.78;96581.63;5105072;28;19958;-69
2023/08/08 05:57:15;;;;;;;;;;;;;;;14.55;97.03;96577.19;5104269;28;19962;-67
2023/08/08 05:59:41;;;;;;;;;;;;;;;14.82;95.41;96564.97;5104219;28;19935;-72
2023/08/08 06:02:07;;;;;;;;;;;;;;;15.12;93.20;96561.16;5103791;28;20008;-71
2023/08/08 06:04:33;;;;;;;;;;;;;;;15.42;91.26;96546.75;5104271;28;19936;-71
2023/08/08 06:06:59;;;;;;;;;;;;;;;15.66;91.54;96552.56;5104196;28;20011;-71
2023/08/08 06:09:25;;;;;;;;;;;;;;;15.89;90.08;96550.72;5104734;28;19975;-71
2023/08/08 06:11:50;;;;;;;;;;;;;;;16.06;88.65;96548.78;5104067;28;19954;-72
2023/08/08 06:14:17;;;;;;;;;;;;;;;16.28;86.79;96543.44;5104689;28;19947;-67
2023/08/08 06:16:43;;;;;;;;;;;;;;;16.39;83.81;96526.56;5103601;28;19949;-67
2023/08/08 06:19:10;;;;;;;;;;;;;;;16.54;85.31;96538.34;5103944;28;19968;-66
2023/08/08 06:21:36;;;;;;;;;;;;;;;16.66;85.14;96543.47;5104072;28;20121;-66
2023/08/08 06:24:01;;;;;;;;;;;;;;;16.71;82.93;96520.44;5104840;28;19952;-67
2023/08/08 06:26:27;;;;;;;;;;;;;;;16.71;83.16;96524.97;5104061;28;19942;-66
2023/08/08 06:28:53;;;;;;;;;;;;;;;16.64;84.70;96541.06;5103912;28;19943;-66
2023/08/08 06:31:19;;;;;;;;;;;;;;;16.68;83.81;96528.91;5107888;28;20008;-68
2023/08/08 06:33:45;;;;;;;;;;;;;;;16.68;84.33;96536.06;5107763;28;20250;-69
2023/08/08 06:36:11;;;;;;;;;;;;;;;16.70;83.29;96515.44;5107835;28;19980;-69
2023/08/08 06:38:37;;;;;;;;;;;;;;;16.83;84.94;96531.69;5107700;28;19940;-69
2023/08/08 06:41:03;;;;;;;;;;;;;;;16.99;85.13;96537.88;5107519;28;19936;-69
2023/08/08 06:43:29;;;;;;;;;;;;;;;17.17;84.79;96526.03;5107707;28;20279;-69
2023/08/08 06:45:55;;;;;;;;;;;;;;;17.19;81.76;96512.53;5107491;28;19940;-68
2023/08/08 06:48:21;;;;;;;;;;;;;;;17.31;82.02;96507.03;5107533;28;20015;-69
2023/08/08 06:50:47;;;;;;;;;;;;;;;17.51;82.09;96514.25;5108098;28;19945;-69
2023/08/08 06:53:13;;;;;;;;;;;;;;;17.76;80.15;96493.09;5107977;28;19956;-78
2023/08/08 06:55:38;;;;;;;;;;;;;;;17.96;80.22;96507.50;5107322;28;19937;-79
2023/08/08 06:58:04;;;;;;;;;;;;;;;18.07;80.18;96493.19;5107419;28;20114;-78
2023/08/08 07:00:30;;;;;;;;;;;;;;;18.21;79.77;96504.88;5107564;28;19958;-77
2023/08/08 07:02:57;;;;;;;;;;;;;;;18.30;77.38;96475.16;5107186;28;20132;-77
2023/08/08 07:05:23;;;;;;;;;;;;;;;18.25;71.88;96438.78;5107213;28;19937;-78
2023/08/08 07:07:50;;;;;;;;;;;;;;;18.09;73.33;96455.78;5107190;28;19947;-78
2023/08/08 07:10:15;;;;;;;;;;;;;;;17.90;75.36;96476.72;5107217;28;19939;-75
2023/08/08 07:12:41;;;;;;;;;;;;;;;17.82;75.03;96475.34;5106989;28;20169;-68
2023/08/08 07:15:08;;;;;;;;;;;;;;;17.74;74.10;96474.00;5107599;28;19939;-71
2023/08/08 07:17:34;;;;;;;;;;;;;;;17.76;73.80;96471.09;5106853;28;19938;-68
2023/08/08 07:20:00;;;;;;;;;;;;;;;17.91;74.01;96470.34;5107724;28;19989;-67
2023/08/08 07:22:25;;;;;;;;;;;;;;;18.15;72.93;96465.31;5106919;28;19946;-67
2023/08/08 07:24:51;;;;;;;;;;;;;;;18.32;73.14;96496.91;5106798;28;19947;-67
2023/08/08 07:27:17;;;;;;;;;;;;;;;18.33;70.17;96514.41;5106807;28;19941;-67
2023/08/08 07:29:43;;;;;;;;;;;;;;;18.44;73.04;96529.31;5107209;28;19938;-78
2023/08/08 07:32:09;;;;;;;;;;;;;;;18.46;69.27;96522.66;5106667;28;19952;-77
2023/08/08 07:34:35;;;;;;;;;;;;;;;18.51;69.70;96526.38;5106670;28;19946;-78
2023/08/08 07:37:00;;;;;;;;;;;;;;;18.54;70.69;96523.19;5105412;28;20165;-77
2023/08/08 07:39:26;;;;;;;;;;;;;;;18.44;69.03;96538.06;5107384;28;20152;-78
2023/08/08 07:41:53;;;;;;;;;;;;;;;18.57;68.01;96527.97;5106015;28;19942;-77
2023/08/08 07:44:19;;;;;;;;;;;;;;;18.65;66.53;96524.78;5106514;28;20122;-75
2023/08/08 07:46:44;;;;;;;;;;;;;;;18.82;70.34;96540.47;5107250;28;19948;-74
2023/08/08 07:49:10;;;;;;;;;;;;;;;18.98;70.22;96533.25;5105243;28;19979;-79
2023/08/08 07:51:36;;;;;;;;;;;;;;;19.03;68.59;96533.25;5105817;28;20251;-74
2023/08/08 07:54:05;;;;;;;;;;;;;;;18.82;66.48;96540.47;5106193;28;20017;-75
2023/08/08 07:56:31;;;;;;;;;;;;;;;18.78;66.24;96529.56;5106121;28;20259;-74
2023/08/08 07:58:57;;;;;;;;;;;;;;;18.75;66.85;96532.75;5106680;28;20001;-75
2023/08/08 08:01:23;;;;;;;;;;;;;;;18.81;67.70;96529.03;5106124;28;20132;-75
2023/08/08 08:03:49;;;;;;;;;;;;;;;18.82;67.53;96535.16;5106072;28;19948;-69
2023/08/08 08:06:14;;;;;;;;;;;;;;;18.81;67.43;96533.53;5106031;28;19943;-76
2023/08/08 08:08:40;;;;;;;;;;;;;;;18.77;67.29;96535.94;5105983;28;19946;-78
2023/08/08 08:11:06;;;;;;;;;;;;;;;18.70;68.54;96537.25;5105987;28;19991;-77
2023/08/08 08:13:32;;;;;;;;;;;;;;;18.68;67.95;96540.19;5105856;28;19995;-81
2023/08/08 08:15:58;;;;;;;;;;;;;;;18.61;68.35;96539.66;5105014;28;19938;-80
2023/08/08 08:18:24;;;;;;;;;;;;;;;18.50;67.40;96538.88;5105608;28;20271;-79
2023/08/08 08:20:50;;;;;;;;;;;;;;;18.57;66.54;96535.94;5106351;28;20165;-80
2023/08/08 08:23:16;;;;;;;;;;;;;;;18.48;67.05;96545.50;5105751;28;20096;-68
2023/08/08 08:25:42;;;;;;;;;;;;;;;18.43;70.56;96556.91;5106254;28;19973;-80
2023/08/08 08:28:07;;;;;;;;;;;;;;;18.49;67.96;96547.88;5105831;28;20250;-79
2023/08/08 08:30:33;;;;;;;;;;;;;;;18.58;69.98;96550.81;5105593;28;19937;-80
2023/08/08 08:33:00;;;;;;;;;;;;;;;18.70;68.49;96539.91;5106226;28;19960;-79
2023/08/08 08:35:26;;;;;;;;;;;;;;;18.84;68.69;96548.97;5104320;28;19947;-79
2023/08/08 08:37:52;;;;;;;;;;;;;;;18.94;67.85;96524.22;5105388;28;19978;-78
2023/08/08 08:40:18;;;;;;;;;;;;;;;19.01;68.39;96536.16;5105446;28;19956;-76
2023/08/08 08:42:44;;;;;;;;;;;;;;;19.02;67.51;96519.16;5105682;28;20133;-68
2023/08/08 08:45:11;;;;;;;;;;;;;;;19.01;66.20;96511.47;5105332;28;20231;-69
2023/08/08 08:47:37;;;;;;;;;;;;;;;18.95;65.97;96520.50;5105819;28;19936;-70
2023/08/08 08:50:03;;;;;;;;;;;;;;;18.93;65.93;96514.66;5106058;28;20003;-70
2023/08/08 08:52:30;;;;;;;;;;;;;;;18.76;64.36;96517.59;5105314;28;19963;-70
2023/08/08 08:54:56;;;;;;;;;;;;;;;18.71;66.15;96521.06;5105132;28;20110;-70
2023/08/08 08:57:25;;;;;;;;;;;;;;;18.78;64.40;96526.09;5105610;28;19964;-69
2023/08/08 08:59:52;;;;;;;;;;;;;;;18.83;66.81;96524.22;5105047;28;20125;-74
2023/08/08 09:02:18;;;;;;;;;;;;;;;18.88;63.89;96519.97;5105030;28;19948;-79
2023/08/08 09:04:45;;;;;;;;;;;;;;;18.87;65.59;96513.88;5104987;28;19944;-80
2023/08/08 09:07:11;;;;;;;;;;;;;;;18.97;64.43;96511.19;5104421;28;19937;-80
2023/08/08 09:09:37;;;;;;;;;;;;;;;18.99;63.36;96508.28;5104919;28;19938;-80
2023/08/08 09:12:04;;;;;;;;;;;;;;;19.02;64.46;96515.69;5104879;28;19941;-79
2023/08/08 09:14:30;;;;;;;;;;;;;;;19.06;65.63;96520.19;5105319;28;19939;-80
2023/08/08 09:16:57;;;;;;;;;;;;;;;19.01;63.45;96501.63;5105305;28;20115;-70
2023/08/08 09:19:23;;;;;;;;;;;;;;;19.13;66.07;96516.47;5104619;28;19979;-80
2023/08/08 09:21:50;;;;;;;;;;;;;;;19.12;62.80;96504.25;5104668;28;19948;-75
2023/08/08 09:24:18;;;;;;;;;;;;;;;19.26;65.76;96514.03;5104239;28;20479;-74
2023/08/08 09:26:44;;;;;;;;;;;;;;;19.40;65.18;96516.09;5104636;28;19949;-75
2023/08/08 09:29:12;;;;;;;;;;;;;;;19.33;63.46;96503.09;5104654;28;19945;-75
2023/08/08 09:31:38;;;;;;;;;;;;;;;19.38;63.16;96507.59;5105084;28;20226;-75
2023/08/08 09:34:04;;;;;;;;;;;;;;;19.56;63.19;96506.19;5104465;28;20246;-75
2023/08/08 09:36:30;;;;;;;;;;;;;;;19.61;63.29;96508.81;5104141;28;19939;-71
2023/08/08 09:38:56;;;;;;;;;;;;;;;19.46;62.48;96504.38;5104541;28;19938;-69
2023/08/08 09:41:22;;;;;;;;;;;;;;;19.39;63.28;96509.19;5105251;28;19941;-69
2023/08/08 09:43:49;;;;;;;;;;;;;;;19.51;62.56;96500.88;5104401;28;19968;-69
2023/08/08 09:46:15;;;;;;;;;;;;;;;19.62;61.82;96499.78;5104989;28;20203;-69
2023/08/08 09:48:42;;;;;;;;;;;;;;;19.80;63.41;96496.53;5104371;28;19938;-70
2023/08/08 09:51:08;;;;;;;;;;;;;;;19.97;61.78;96485.50;5105135;28;19945;-69
2023/08/08 09:53:34;;;;;;;;;;;;;;;20.03;61.48;96486.25;5104239;28;20030;-69
2023/08/08 09:56:03;;;;;;;;;;;;;;;20.09;59.76;96474.47;5103860;28;20155;-69
2023/08/08 09:58:29;;;;;;;;;;;;;;;20.21;57.79;96480.25;5104834;28;20244;-67
2023/08/08 10:00:55;;;;;;;;;;;;;;;20.27;59.51;96497.00;5104234;28;19936;-68
2023/08/08 10:03:21;;;;;;;;;;;;;;;20.31;56.67;96490.03;5104198;28;19982;-67
2023/08/08 10:05:47;;;;;;;;;;;;;;;20.32;57.77;96491.59;5106790;28;19943;-67
2023/08/08 10:08:15;;;;;;;;;;;;;;;20.31;57.75;96487.38;5108354;28;19941;-67
2023/08/08 10:10:41;;;;;;;;;;;;;;;20.28;57.68;96491.41;5108555;28;19950;-67
2023/08/08 10:13:07;;;;;;;;;;;;;;;20.25;55.96;96496.47;5108980;28;19955;-68
2023/08/08 10:15:36;;;;;;;;;;;;;;;20.35;56.05;96490.25;5108498;28;19982;-69
2023/08/08 10:18:02;;;;;;;;;;;;;;;20.47;57.56;96488.84;5108583;28;19965;-69
2023/08/08 10:20:32;;;;;;;;;;;;;;;20.59;57.02;96495.69;5108065;28;19939;-69
2023/08/08 10:22:58;;;;;;;;;;;;;;;20.63;56.93;96500.16;5108021;28;19960;-69
2023/08/08 10:25:25;;;;;;;;;;;;;;;20.52;54.36;96488.00;5108785;28;19964;-69
2023/08/08 10:28:01;;;;;;;;;;;;;;;20.39;54.72;96494.75;5107957;28;20109;-69
2023/08/08 10:30:27;;;;;;;;;;;;;;;20.23;55.81;96499.41;5107947;28;20142;-68
2023/08/08 10:32:56;;;;;;;;;;;;;;;20.13;55.36;96494.16;5107786;28;19955;-69
2023/08/08 10:35:24;;;;;;;;;;;;;;;20.13;55.16;96499.47;5108545;28;19935;-69
2023/08/08 10:37:53;;;;;;;;;;;;;;;20.31;55.95;96502.56;5108150;28;19934;-69
2023/08/08 10:40:19;;;;;;;;;;;;;;;20.56;53.34;96489.03;5106655;28;19938;-70
2023/08/08 10:42:46;;;;;;;;;;;;;;;20.73;56.02;96496.63;5107607;28;19934;-70
2023/08/08 10:45:15;;;;;;;;;;;;;;;20.63;53.60;96489.50;5107600;28;19943;-69
2023/08/08 10:47:42;;;;;;;;;;;;;;;20.66;55.83;96488.97;5107770;28;19935;-69
2023/08/08 10:50:15;;;;;;;;;;;;;;;20.83;53.26;96483.19;5107504;28;19953;-78
2023/08/08 10:52:53;;;;;;;;;;;;;;;20.75;54.21;96494.47;5107381;28;20133;-72
2023/08/08 10:55:22;;;;;;;;;;;;;;;20.55;53.35;96489.28;5107324;28;19938;-72
2023/08/08 10:57:53;;;;;;;;;;;;;;;20.42;54.34;96501.41;5089334;28;19959;-72
2023/08/08 11:00:19;;;;;;;;;;;;;;;20.50;56.74;96508.78;5107262;28;19938;-72
2023/08/08 11:02:46;;;;;;;;;;;;;;;20.81;56.26;96506.66;5107039;28;19947;-72
2023/08/08 11:05:12;;;;;;;;;;;;;;;21.03;51.06;96486.72;5105986;28;19944;-72
2023/08/08 11:07:38;;;;;;;;;;;;;;;21.24;52.33;96487.25;5107137;28;19936;-72
2023/08/08 11:10:05;;;;;;;;;;;;;;;21.41;50.41;96489.47;5107131;28;19943;-72
2023/08/08 11:12:31;;;;;;;;;;;;;;;21.40;49.00;96483.34;5107485;28;20228;-79
2023/08/08 11:14:58;;;;;;;;;;;;;;;21.16;51.14;96490.56;5107762;28;19941;-80
2023/08/08 11:17:24;;;;;;;;;;;;;;;21.17;49.64;96487.63;5105719;28;19944;-78
2023/08/08 11:19:50;;;;;;;;;;;;;;;21.40;53.79;96495.88;5106851;28;20010;-78
2023/08/08 11:22:16;;;;;;;;;;;;;;;21.34;49.53;96481.03;5106887;28;19942;-80
2023/08/08 11:24:42;;;;;;;;;;;;;;;21.11;51.62;96491.41;5106838;28;19998;-78
2023/08/08 11:27:08;;;;;;;;;;;;;;;21.20;52.99;96492.38;5107642;28;20105;-68
2023/08/08 11:29:33;;;;;;;;;;;;;;;21.14;53.35;96482.84;5107651;28;20147;-69
2023/08/08 11:32:00;;;;;;;;;;;;;;;20.87;50.35;96486.88;5107468;28;19943;-69
2023/08/08 11:34:26;;;;;;;;;;;;;;;20.67;53.59;96495.88;5106544;28;19958;-68
2023/08/08 11:36:52;;;;;;;;;;;;;;;20.60;51.99;96487.41;5106589;28;19938;-67
2023/08/08 11:39:18;;;;;;;;;;;;;;;20.48;52.62;96482.41;5106530;28;19944;-68
2023/08/08 11:41:44;;;;;;;;;;;;;;;20.39;51.31;96480.63;5107008;28;19965;-70
2023/08/08 11:44:10;;;;;;;;;;;;;;;20.41;53.62;96489.94;5106465;28;19937;-68
2023/08/08 11:46:43;;;;;;;;;;;;;;;20.38;52.39;96487.03;5106984;28;19942;-69
2023/08/08 11:49:09;;;;;;;;;;;;;;;20.53;52.36;96486.13;5106921;28;19938;-69
2023/08/08 11:51:35;;;;;;;;;;;;;;;20.73;51.14;96475.28;5106286;28;20234;-69
2023/08/08 11:54:01;;;;;;;;;;;;;;;21.05;53.39;96482.66;5106138;28;19954;-70
2023/08/08 11:56:28;;;;;;;;;;;;;;;21.37;50.67;96472.44;5106188;28;20240;-69
2023/08/08 11:58:55;;;;;;;;;;;;;;;21.65;48.89;96465.44;5106126;28;19934;-69
2023/08/08 12:01:25;;;;;;;;;;;;;;;21.87;51.50;96473.63;5106082;28;19943;-69
2023/08/08 12:03:51;;;;;;;;;;;;;;;22.19;49.56;96458.72;5105951;28;19937;-74
2023/08/08 12:06:18;;;;;;;;;;;;;;;22.11;47.49;96454.03;5104948;28;19963;-67
2023/08/08 12:08:44;;;;;;;;;;;;;;;21.88;47.66;96463.75;5106795;28;19944;-68
2023/08/08 12:11:11;;;;;;;;;;;;;;;21.77;49.19;96465.78;5105941;28;19939;-67
2023/08/08 12:13:37;;;;;;;;;;;;;;;21.52;48.49;96469.59;5105742;28;19957;-68
2023/08/08 12:16:04;;;;;;;;;;;;;;;21.34;50.10;96473.81;5105872;28;20201;-67
2023/08/08 12:18:30;;;;;;;;;;;;;;;21.26;52.21;96469.88;5105626;28;19966;-67
2023/08/08 12:20:56;;;;;;;;;;;;;;;21.40;49.87;96458.53;5105744;28;19950;-67
2023/08/08 12:23:21;;;;;;;;;;;;;;;21.64;52.93;96464.63;5105759;28;19941;-72
2023/08/08 12:25:47;;;;;;;;;;;;;;;22.02;51.83;96461.94;5105892;28;19945;-68
2023/08/08 12:28:13;;;;;;;;;;;;;;;22.41;49.54;96450.13;5104159;28;19934;-68
2023/08/08 12:30:39;;;;;;;;;;;;;;;22.68;48.71;96443.25;5105731;28;19937;-68
2023/08/08 12:33:05;;;;;;;;;;;;;;;22.80;50.04;96448.09;5106182;28;19939;-68
2023/08/08 12:35:31;;;;;;;;;;;;;;;22.81;47.10;96442.44;5105476;28;19941;-67
2023/08/08 12:37:57;;;;;;;;;;;;;;;22.74;48.18;96450.09;5106190;28;19943;-68